sensor_id;sensor_type;location;lat;lon;timestamp;temperature;humidity
67870;DHT22;54673;52.262;6.830;2023-09-19T00:00:23;17.80;88.70
67870;DHT22;54673;52.262;6.830;2023-09-19T00:02:58;17.70;88.90
67870;DHT22;54673;52.262;6.830;2023-09-19T00:05:27;17.70;88.90
67870;DHT22;54673;52.262;6.830;2023-09-19T00:07:56;17.70;88.90
67870;DHT22;54673;52.262;6.830;2023-09-19T00:10:24;17.80;89.90
67870;DHT22;54673;52.262;6.830;2023-09-19T00:12:59;17.80;89.50
67870;DHT22;54673;52.262;6.830;2023-09-19T00:15:26;17.70;89.60
67870;DHT22;54673;52.262;6.830;2023-09-19T00:17:54;17.70;89.80
67870;DHT22;54673;52.262;6.830;2023-09-19T00:20:20;17.70;90.10
67870;DHT22;54673;52.262;6.830;2023-09-19T00:22:49;17.70;90.00
67870;DHT22;54673;52.262;6.830;2023-09-19T00:25:17;17.70;90.20
67870;DHT22;54673;52.262;6.830;2023-09-19T00:27:43;17.60;90.00
67870;DHT22;54673;52.262;6.830;2023-09-19T00:30:11;17.60;90.10
67870;DHT22;54673;52.262;6.830;2023-09-19T00:32:45;17.60;89.80
67870;DHT22;54673;52.262;6.830;2023-09-19T00:35:13;17.60;89.90
67870;DHT22;54673;52.262;6.830;2023-09-19T00:37:39;17.60;89.90
67870;DHT22;54673;52.262;6.830;2023-09-19T00:40:09;17.50;89.90
67870;DHT22;54673;52.262;6.830;2023-09-19T00:42:39;17.50;90.00
67870;DHT22;54673;52.262;6.830;2023-09-19T00:45:06;17.70;90.00
67870;DHT22;54673;52.262;6.830;2023-09-19T00:47:32;17.50;90.20
67870;DHT22;54673;52.262;6.830;2023-09-19T00:49:58;17.60;90.20
67870;DHT22;54673;52.262;6.830;2023-09-19T00:52:24;17.40;89.50
67870;DHT22;54673;52.262;6.830;2023-09-19T00:54:50;17.40;89.70
67870;DHT22;54673;52.262;6.830;2023-09-19T00:57:17;17.40;90.00
67870;DHT22;54673;52.262;6.830;2023-09-19T00:59:44;17.40;89.80
67870;DHT22;54673;52.262;6.830;2023-09-19T01:02:10;17.40;89.20
67870;DHT22;54673;52.262;6.830;2023-09-19T01:04:40;17.40;89.50
67870;DHT22;54673;52.262;6.830;2023-09-19T01:07:06;17.40;89.50
67870;DHT22;54673;52.262;6.830;2023-09-19T01:09:33;17.30;89.70
67870;DHT22;54673;52.262;6.830;2023-09-19T01:12:03;17.40;89.20
67870;DHT22;54673;52.262;6.830;2023-09-19T01:20:17;17.30;89.30
67870;DHT22;54673;52.262;6.830;2023-09-19T01:25:46;17.30;90.00
67870;DHT22;54673;52.262;6.830;2023-09-19T01:28:43;17.20;89.00
67870;DHT22;54673;52.262;6.830;2023-09-19T01:31:13;17.20;89.30
67870;DHT22;54673;52.262;6.830;2023-09-19T01:34:06;17.40;89.30
67870;DHT22;54673;52.262;6.830;2023-09-19T01:36:36;17.20;89.30
67870;DHT22;54673;52.262;6.830;2023-09-19T01:39:09;17.20;89.80
67870;DHT22;54673;52.262;6.830;2023-09-19T01:41:41;17.50;89.60
67870;DHT22;54673;52.262;6.830;2023-09-19T01:44:17;17.10;89.80
67870;DHT22;54673;52.262;6.830;2023-09-19T01:46:44;17.40;89.80
67870;DHT22;54673;52.262;6.830;2023-09-19T01:49:50;17.10;89.60
67870;DHT22;54673;52.262;6.830;2023-09-19T01:52:20;17.10;89.80
67870;DHT22;54673;52.262;6.830;2023-09-19T01:54:56;17.10;90.00
67870;DHT22;54673;52.262;6.830;2023-09-19T01:57:29;17.00;89.70
67870;DHT22;54673;52.262;6.830;2023-09-19T02:00:07;17.00;90.00
67870;DHT22;54673;52.262;6.830;2023-09-19T02:02:37;17.00;89.90
67870;DHT22;54673;52.262;6.830;2023-09-19T02:05:04;17.00;90.00
67870;DHT22;54673;52.262;6.830;2023-09-19T02:07:31;16.70;90.20
67870;DHT22;54673;52.262;6.830;2023-09-19T02:09:57;17.00;90.20
67870;DHT22;54673;52.262;6.830;2023-09-19T02:12:26;17.00;90.10
67870;DHT22;54673;52.262;6.830;2023-09-19T02:14:51;16.90;90.30
67870;DHT22;54673;52.262;6.830;2023-09-19T02:17:17;16.90;90.10
67870;DHT22;54673;52.262;6.830;2023-09-19T02:19:42;16.90;90.50
67870;DHT22;54673;52.262;6.830;2023-09-19T02:22:08;16.90;90.20
67870;DHT22;54673;52.262;6.830;2023-09-19T02:24:39;16.80;90.20
67870;DHT22;54673;52.262;6.830;2023-09-19T02:27:05;16.90;90.30
67870;DHT22;54673;52.262;6.830;2023-09-19T02:29:33;16.90;90.60
67870;DHT22;54673;52.262;6.830;2023-09-19T02:32:00;16.80;90.20
67870;DHT22;54673;52.262;6.830;2023-09-19T02:34:28;17.50;90.50
67870;DHT22;54673;52.262;6.830;2023-09-19T02:36:54;16.00;90.10
67870;DHT22;54673;52.262;6.830;2023-09-19T02:39:21;16.80;90.50
67870;DHT22;54673;52.262;6.830;2023-09-19T02:41:46;16.80;90.40
67870;DHT22;54673;52.262;6.830;2023-09-19T02:44:12;16.70;90.10
67870;DHT22;54673;52.262;6.830;2023-09-19T02:46:37;16.70;90.30
67870;DHT22;54673;52.262;6.830;2023-09-19T02:49:03;17.00;90.40
67870;DHT22;54673;52.262;6.830;2023-09-19T02:51:32;16.60;90.30
67870;DHT22;54673;52.262;6.830;2023-09-19T02:53:59;16.70;90.50
67870;DHT22;54673;52.262;6.830;2023-09-19T02:56:25;16.60;90.50
67870;DHT22;54673;52.262;6.830;2023-09-19T02:58:51;16.60;90.60
67870;DHT22;54673;52.262;6.830;2023-09-19T03:01:16;16.60;90.50
67870;DHT22;54673;52.262;6.830;2023-09-19T03:03:43;16.60;90.50
67870;DHT22;54673;52.262;6.830;2023-09-19T03:06:10;16.60;90.70
67870;DHT22;54673;52.262;6.830;2023-09-19T03:08:36;16.60;90.40
67870;DHT22;54673;52.262;6.830;2023-09-19T03:11:04;16.50;90.30
67870;DHT22;54673;52.262;6.830;2023-09-19T03:13:34;16.50;90.50
67870;DHT22;54673;52.262;6.830;2023-09-19T03:16:01;16.50;90.60
67870;DHT22;54673;52.262;6.830;2023-09-19T03:18:30;16.50;90.60
67870;DHT22;54673;52.262;6.830;2023-09-19T03:20:57;16.50;90.60
67870;DHT22;54673;52.262;6.830;2023-09-19T03:23:25;16.40;90.70
67870;DHT22;54673;52.262;6.830;2023-09-19T03:25:51;16.50;90.60
67870;DHT22;54673;52.262;6.830;2023-09-19T03:28:18;16.40;90.60
67870;DHT22;54673;52.262;6.830;2023-09-19T03:30:44;16.40;90.70
67870;DHT22;54673;52.262;6.830;2023-09-19T03:33:09;16.40;90.50
67870;DHT22;54673;52.262;6.830;2023-09-19T03:35:38;16.30;90.50
67870;DHT22;54673;52.262;6.830;2023-09-19T03:38:05;16.30;90.50
67870;DHT22;54673;52.262;6.830;2023-09-19T03:40:30;16.30;90.70
67870;DHT22;54673;52.262;6.830;2023-09-19T03:42:56;16.30;90.60
67870;DHT22;54673;52.262;6.830;2023-09-19T03:45:21;16.30;91.00
67870;DHT22;54673;52.262;6.830;2023-09-19T03:47:47;16.30;90.40
67870;DHT22;54673;52.262;6.830;2023-09-19T03:50:13;16.30;90.80
67870;DHT22;54673;52.262;6.830;2023-09-19T03:52:45;16.30;90.90
67870;DHT22;54673;52.262;6.830;2023-09-19T03:55:11;16.20;90.60
67870;DHT22;54673;52.262;6.830;2023-09-19T03:57:37;16.20;90.50
67870;DHT22;54673;52.262;6.830;2023-09-19T04:00:04;16.20;90.90
67870;DHT22;54673;52.262;6.830;2023-09-19T04:02:39;16.20;90.60
67870;DHT22;54673;52.262;6.830;2023-09-19T04:05:05;16.20;90.80
67870;DHT22;54673;52.262;6.830;2023-09-19T04:07:31;16.10;90.70
67870;DHT22;54673;52.262;6.830;2023-09-19T04:09:56;16.10;90.80
67870;DHT22;54673;52.262;6.830;2023-09-19T04:12:22;16.10;90.90
67870;DHT22;54673;52.262;6.830;2023-09-19T04:14:47;16.10;90.60
67870;DHT22;54673;52.262;6.830;2023-09-19T04:17:14;16.10;90.70
67870;DHT22;54673;52.262;6.830;2023-09-19T04:19:40;16.10;90.90
67870;DHT22;54673;52.262;6.830;2023-09-19T04:22:06;16.10;90.70
67870;DHT22;54673;52.262;6.830;2023-09-19T04:24:32;16.10;90.80
67870;DHT22;54673;52.262;6.830;2023-09-19T04:26:58;16.00;90.70
67870;DHT22;54673;52.262;6.830;2023-09-19T04:29:24;16.00;90.80
67870;DHT22;54673;52.262;6.830;2023-09-19T04:31:52;16.30;90.90
67870;DHT22;54673;52.262;6.830;2023-09-19T04:34:17;16.00;91.10
67870;DHT22;54673;52.262;6.830;2023-09-19T04:36:43;16.00;90.80
67870;DHT22;54673;52.262;6.830;2023-09-19T04:39:09;16.00;90.50
67870;DHT22;54673;52.262;6.830;2023-09-19T04:41:36;16.00;90.50
67870;DHT22;54673;52.262;6.830;2023-09-19T04:44:04;16.10;90.70
67870;DHT22;54673;52.262;6.830;2023-09-19T04:46:30;15.90;90.70
67870;DHT22;54673;52.262;6.830;2023-09-19T04:48:56;15.90;90.70
67870;DHT22;54673;52.262;6.830;2023-09-19T04:51:21;15.90;90.40
67870;DHT22;54673;52.262;6.830;2023-09-19T04:53:47;15.90;90.70
67870;DHT22;54673;52.262;6.830;2023-09-19T04:56:13;15.80;90.70
67870;DHT22;54673;52.262;6.830;2023-09-19T04:58:39;15.80;90.50
67870;DHT22;54673;52.262;6.830;2023-09-19T05:01:04;15.80;90.60
67870;DHT22;54673;52.262;6.830;2023-09-19T05:03:30;16.10;90.60
67870;DHT22;54673;52.262;6.830;2023-09-19T05:05:56;15.80;90.30
67870;DHT22;54673;52.262;6.830;2023-09-19T05:08:21;15.80;90.60
67870;DHT22;54673;52.262;6.830;2023-09-19T05:10:47;15.70;90.20
67870;DHT22;54673;52.262;6.830;2023-09-19T05:13:14;15.70;90.70
67870;DHT22;54673;52.262;6.830;2023-09-19T05:15:40;15.70;89.70
67870;DHT22;54673;52.262;6.830;2023-09-19T05:18:06;15.70;90.40
67870;DHT22;54673;52.262;6.830;2023-09-19T05:20:31;15.70;90.30
67870;DHT22;54673;52.262;6.830;2023-09-19T05:23:04;15.60;90.30
67870;DHT22;54673;52.262;6.830;2023-09-19T05:25:37;15.60;90.20
67870;DHT22;54673;52.262;6.830;2023-09-19T05:28:08;15.90;90.20
67870;DHT22;54673;52.262;6.830;2023-09-19T05:30:34;15.60;90.20
67870;DHT22;54673;52.262;6.830;2023-09-19T05:33:02;15.60;90.40
67870;DHT22;54673;52.262;6.830;2023-09-19T05:35:27;15.60;90.20
67870;DHT22;54673;52.262;6.830;2023-09-19T05:37:54;15.60;90.10
67870;DHT22;54673;52.262;6.830;2023-09-19T05:40:20;15.50;90.20
67870;DHT22;54673;52.262;6.830;2023-09-19T05:42:46;15.50;90.20
67870;DHT22;54673;52.262;6.830;2023-09-19T05:45:13;15.50;89.80
67870;DHT22;54673;52.262;6.830;2023-09-19T05:47:42;15.50;90.10
67870;DHT22;54673;52.262;6.830;2023-09-19T05:50:11;15.50;90.00
67870;DHT22;54673;52.262;6.830;2023-09-19T05:52:37;15.40;90.10
67870;DHT22;54673;52.262;6.830;2023-09-19T05:55:06;15.50;90.20
67870;DHT22;54673;52.262;6.830;2023-09-19T05:57:36;15.40;90.00
67870;DHT22;54673;52.262;6.830;2023-09-19T06:00:05;15.40;90.40
67870;DHT22;54673;52.262;6.830;2023-09-19T06:02:36;15.40;89.80
67870;DHT22;54673;52.262;6.830;2023-09-19T06:05:02;15.40;89.90
67870;DHT22;54673;52.262;6.830;2023-09-19T06:07:27;15.40;90.10
67870;DHT22;54673;52.262;6.830;2023-09-19T06:10:04;15.40;90.10
67870;DHT22;54673;52.262;6.830;2023-09-19T06:12:37;15.40;89.50
67870;DHT22;54673;52.262;6.830;2023-09-19T06:15:04;15.30;90.00
67870;DHT22;54673;52.262;6.830;2023-09-19T06:17:46;15.30;89.90
67870;DHT22;54673;52.262;6.830;2023-09-19T06:20:12;15.40;90.00
67870;DHT22;54673;52.262;6.830;2023-09-19T06:22:41;15.30;90.00
67870;DHT22;54673;52.262;6.830;2023-09-19T06:25:08;15.30;90.00
67870;DHT22;54673;52.262;6.830;2023-09-19T06:27:37;15.70;89.90
67870;DHT22;54673;52.262;6.830;2023-09-19T06:30:02;15.40;90.00
67870;DHT22;54673;52.262;6.830;2023-09-19T06:32:28;15.30;90.10
67870;DHT22;54673;52.262;6.830;2023-09-19T06:34:54;15.90;90.00
67870;DHT22;54673;52.262;6.830;2023-09-19T06:37:21;15.30;89.70
67870;DHT22;54673;52.262;6.830;2023-09-19T06:39:47;15.30;89.90
67870;DHT22;54673;52.262;6.830;2023-09-19T06:42:15;15.30;89.60
67870;DHT22;54673;52.262;6.830;2023-09-19T06:44:43;15.30;90.10
67870;DHT22;54673;52.262;6.830;2023-09-19T06:47:09;15.30;90.10
67870;DHT22;54673;52.262;6.830;2023-09-19T06:49:36;15.30;89.90
67870;DHT22;54673;52.262;6.830;2023-09-19T06:52:02;15.20;89.60
67870;DHT22;54673;52.262;6.830;2023-09-19T06:54:28;15.20;90.00
67870;DHT22;54673;52.262;6.830;2023-09-19T06:56:57;15.20;90.00
67870;DHT22;54673;52.262;6.830;2023-09-19T06:59:24;15.40;90.20
67870;DHT22;54673;52.262;6.830;2023-09-19T07:01:50;15.20;89.80
67870;DHT22;54673;52.262;6.830;2023-09-19T07:04:16;15.70;90.20
67870;DHT22;54673;52.262;6.830;2023-09-19T07:06:42;15.90;90.10
67870;DHT22;54673;52.262;6.830;2023-09-19T07:09:08;15.20;90.00
67870;DHT22;54673;52.262;6.830;2023-09-19T07:11:34;15.30;90.00
67870;DHT22;54673;52.262;6.830;2023-09-19T07:14:00;15.60;90.10
67870;DHT22;54673;52.262;6.830;2023-09-19T07:16:28;15.30;90.00
67870;DHT22;54673;52.262;6.830;2023-09-19T07:18:56;15.20;90.20
67870;DHT22;54673;52.262;6.830;2023-09-19T07:21:22;15.20;90.00
67870;DHT22;54673;52.262;6.830;2023-09-19T07:23:48;15.20;90.10
67870;DHT22;54673;52.262;6.830;2023-09-19T07:26:15;15.20;90.20
67870;DHT22;54673;52.262;6.830;2023-09-19T07:28:40;15.20;90.10
67870;DHT22;54673;52.262;6.830;2023-09-19T07:31:06;15.20;90.20
67870;DHT22;54673;52.262;6.830;2023-09-19T07:33:35;15.20;90.20
67870;DHT22;54673;52.262;6.830;2023-09-19T07:36:01;15.20;90.30
67870;DHT22;54673;52.262;6.830;2023-09-19T07:38:27;15.20;90.10
67870;DHT22;54673;52.262;6.830;2023-09-19T07:40:53;15.20;90.10
67870;DHT22;54673;52.262;6.830;2023-09-19T07:43:18;15.20;90.10
67870;DHT22;54673;52.262;6.830;2023-09-19T07:45:44;15.20;90.20
67870;DHT22;54673;52.262;6.830;2023-09-19T07:48:09;15.50;90.20
67870;DHT22;54673;52.262;6.830;2023-09-19T07:50:40;15.20;89.90
67870;DHT22;54673;52.262;6.830;2023-09-19T07:53:09;15.40;90.00
67870;DHT22;54673;52.262;6.830;2023-09-19T07:55:34;15.30;89.80
67870;DHT22;54673;52.262;6.830;2023-09-19T07:58:00;15.30;90.00
67870;DHT22;54673;52.262;6.830;2023-09-19T08:00:26;15.30;90.00
67870;DHT22;54673;52.262;6.830;2023-09-19T08:02:51;15.30;90.10
67870;DHT22;54673;52.262;6.830;2023-09-19T08:05:17;15.30;90.00
67870;DHT22;54673;52.262;6.830;2023-09-19T08:07:45;15.30;90.10
67870;DHT22;54673;52.262;6.830;2023-09-19T08:10:22;15.30;90.10
67870;DHT22;54673;52.262;6.830;2023-09-19T08:12:48;15.40;90.00
67870;DHT22;54673;52.262;6.830;2023-09-19T08:15:15;15.40;89.50
67870;DHT22;54673;52.262;6.830;2023-09-19T08:17:41;15.40;90.00
67870;DHT22;54673;52.262;6.830;2023-09-19T08:20:08;15.50;89.90
67870;DHT22;54673;52.262;6.830;2023-09-19T08:22:42;15.50;90.10
67870;DHT22;54673;52.262;6.830;2023-09-19T08:25:09;15.60;89.80
67870;DHT22;54673;52.262;6.830;2023-09-19T08:27:34;15.60;89.90
67870;DHT22;54673;52.262;6.830;2023-09-19T08:30:01;16.70;90.10
67870;DHT22;54673;52.262;6.830;2023-09-19T08:32:28;15.70;89.70
67870;DHT22;54673;52.262;6.830;2023-09-19T08:34:54;15.80;88.90
67870;DHT22;54673;52.262;6.830;2023-09-19T08:37:20;15.70;88.80
67870;DHT22;54673;52.262;6.830;2023-09-19T08:39:45;16.10;89.10
67870;DHT22;54673;52.262;6.830;2023-09-19T08:42:11;15.80;88.60
67870;DHT22;54673;52.262;6.830;2023-09-19T08:44:38;15.90;88.60
67870;DHT22;54673;52.262;6.830;2023-09-19T08:47:10;16.10;88.30
67870;DHT22;54673;52.262;6.830;2023-09-19T08:49:53;16.10;89.00
67870;DHT22;54673;52.262;6.830;2023-09-19T08:52:27;16.10;88.00
67870;DHT22;54673;52.262;6.830;2023-09-19T08:54:58;16.20;88.10
67870;DHT22;54673;52.262;6.830;2023-09-19T08:57:29;17.30;88.30
67870;DHT22;54673;52.262;6.830;2023-09-19T08:59:55;16.30;87.40
67870;DHT22;54673;52.262;6.830;2023-09-19T09:02:22;16.40;86.80
67870;DHT22;54673;52.262;6.830;2023-09-19T09:04:50;16.50;86.50
67870;DHT22;54673;52.262;6.830;2023-09-19T09:07:16;16.80;85.90
67870;DHT22;54673;52.262;6.830;2023-09-19T09:09:44;16.90;83.50
67870;DHT22;54673;52.262;6.830;2023-09-19T09:12:14;17.00;84.50
67870;DHT22;54673;52.262;6.830;2023-09-19T09:14:45;17.00;82.70
67870;DHT22;54673;52.262;6.830;2023-09-19T09:17:12;17.10;83.90
67870;DHT22;54673;52.262;6.830;2023-09-19T09:19:37;17.20;84.20
67870;DHT22;54673;52.262;6.830;2023-09-19T09:22:10;17.10;83.90
67870;DHT22;54673;52.262;6.830;2023-09-19T09:24:37;17.20;83.40
67870;DHT22;54673;52.262;6.830;2023-09-19T09:27:05;17.30;83.80
67870;DHT22;54673;52.262;6.830;2023-09-19T09:29:47;17.40;82.50
67870;DHT22;54673;52.262;6.830;2023-09-19T09:34:49;17.50;82.80
67870;DHT22;54673;52.262;6.830;2023-09-19T09:37:16;17.50;83.10
67870;DHT22;54673;52.262;6.830;2023-09-19T09:39:59;17.60;83.10
67870;DHT22;54673;52.262;6.830;2023-09-19T09:42:39;17.70;82.30
67870;DHT22;54673;52.262;6.830;2023-09-19T09:45:22;17.80;81.10
67870;DHT22;54673;52.262;6.830;2023-09-19T09:48:03;17.80;82.60
67870;DHT22;54673;52.262;6.830;2023-09-19T09:50:33;17.90;81.50
67870;DHT22;54673;52.262;6.830;2023-09-19T09:53:29;18.00;81.20
67870;DHT22;54673;52.262;6.830;2023-09-19T09:58:28;18.10;81.20
67870;DHT22;54673;52.262;6.830;2023-09-19T10:01:01;18.20;80.60
67870;DHT22;54673;52.262;6.830;2023-09-19T10:03:40;18.30;80.30
67870;DHT22;54673;52.262;6.830;2023-09-19T10:06:14;18.30;79.70
67870;DHT22;54673;52.262;6.830;2023-09-19T10:09:08;18.40;79.30
67870;DHT22;54673;52.262;6.830;2023-09-19T10:11:46;18.40;79.20
67870;DHT22;54673;52.262;6.830;2023-09-19T10:14:15;18.50;78.90
67870;DHT22;54673;52.262;6.830;2023-09-19T10:16:45;18.60;79.50
67870;DHT22;54673;52.262;6.830;2023-09-19T10:19:16;18.70;79.00
67870;DHT22;54673;52.262;6.830;2023-09-19T10:21:44;18.70;78.00
67870;DHT22;54673;52.262;6.830;2023-09-19T10:24:11;18.90;77.90
67870;DHT22;54673;52.262;6.830;2023-09-19T10:26:39;18.90;78.30
67870;DHT22;54673;52.262;6.830;2023-09-19T10:29:08;18.90;77.70
67870;DHT22;54673;52.262;6.830;2023-09-19T10:31:36;19.00;77.40
67870;DHT22;54673;52.262;6.830;2023-09-19T10:34:06;19.10;77.20
67870;DHT22;54673;52.262;6.830;2023-09-19T10:36:33;19.10;76.70
67870;DHT22;54673;52.262;6.830;2023-09-19T10:39:02;19.20;76.70
67870;DHT22;54673;52.262;6.830;2023-09-19T10:41:32;19.30;76.20
67870;DHT22;54673;52.262;6.830;2023-09-19T10:44:03;19.50;76.10
67870;DHT22;54673;52.262;6.830;2023-09-19T10:46:31;19.50;75.80
67870;DHT22;54673;52.262;6.830;2023-09-19T10:49:00;19.60;71.60
67870;DHT22;54673;52.262;6.830;2023-09-19T10:51:33;19.60;71.20
67870;DHT22;54673;52.262;6.830;2023-09-19T10:54:08;19.70;71.90
67870;DHT22;54673;52.262;6.830;2023-09-19T10:56:42;19.70;72.10
67870;DHT22;54673;52.262;6.830;2023-09-19T10:59:12;19.80;72.30
67870;DHT22;54673;52.262;6.830;2023-09-19T11:01:52;19.90;72.70
67870;DHT22;54673;52.262;6.830;2023-09-19T11:04:26;19.90;72.40
67870;DHT22;54673;52.262;6.830;2023-09-19T11:09:50;20.00;72.30
67870;DHT22;54673;52.262;6.830;2023-09-19T11:14:58;20.10;72.50
67870;DHT22;54673;52.262;6.830;2023-09-19T11:17:34;20.10;68.90
67870;DHT22;54673;52.262;6.830;2023-09-19T11:30:37;20.30;70.70
67870;DHT22;54673;52.262;6.830;2023-09-19T11:33:18;20.30;70.60
67870;DHT22;54673;52.262;6.830;2023-09-19T11:36:05;20.40;70.70
67870;DHT22;54673;52.262;6.830;2023-09-19T11:46:32;20.50;71.00
67870;DHT22;54673;52.262;6.830;2023-09-19T11:49:08;20.50;70.70
67870;DHT22;54673;52.262;6.830;2023-09-19T11:51:47;20.50;70.70
67870;DHT22;54673;52.262;6.830;2023-09-19T11:54:16;20.50;70.70
67870;DHT22;54673;52.262;6.830;2023-09-19T11:56:53;20.50;70.80
67870;DHT22;54673;52.262;6.830;2023-09-19T11:59:29;20.50;70.80
67870;DHT22;54673;52.262;6.830;2023-09-19T12:02:01;20.50;69.70
67870;DHT22;54673;52.262;6.830;2023-09-19T12:04:40;20.50;70.70
67870;DHT22;54673;52.262;6.830;2023-09-19T12:07:10;20.60;70.10
67870;DHT22;54673;52.262;6.830;2023-09-19T12:09:45;20.60;70.50
67870;DHT22;54673;52.262;6.830;2023-09-19T12:12:24;20.60;70.50
67870;DHT22;54673;52.262;6.830;2023-09-19T12:14:53;20.60;70.30
67870;DHT22;54673;52.262;6.830;2023-09-19T12:17:20;20.60;70.60
67870;DHT22;54673;52.262;6.830;2023-09-19T12:19:56;20.60;70.40
67870;DHT22;54673;52.262;6.830;2023-09-19T12:22:22;20.60;69.90
67870;DHT22;54673;52.262;6.830;2023-09-19T12:24:48;20.60;70.30
67870;DHT22;54673;52.262;6.830;2023-09-19T12:27:16;20.60;69.40
67870;DHT22;54673;52.262;6.830;2023-09-19T12:29:43;20.50;67.70
67870;DHT22;54673;52.262;6.830;2023-09-19T12:32:09;20.50;68.90
67870;DHT22;54673;52.262;6.830;2023-09-19T12:34:36;20.50;68.60
67870;DHT22;54673;52.262;6.830;2023-09-19T12:37:16;20.50;68.80
67870;DHT22;54673;52.262;6.830;2023-09-19T12:39:52;20.50;68.80
67870;DHT22;54673;52.262;6.830;2023-09-19T12:42:23;20.60;69.30
67870;DHT22;54673;52.262;6.830;2023-09-19T12:44:51;20.60;69.30
67870;DHT22;54673;52.262;6.830;2023-09-19T12:47:21;20.60;69.50
67870;DHT22;54673;52.262;6.830;2023-09-19T12:50:18;20.60;69.40
67870;DHT22;54673;52.262;6.830;2023-09-19T12:52:52;20.60;69.30
67870;DHT22;54673;52.262;6.830;2023-09-19T12:55:23;20.60;69.30
67870;DHT22;54673;52.262;6.830;2023-09-19T13:00:43;20.60;69.00
67870;DHT22;54673;52.262;6.830;2023-09-19T13:03:26;20.60;68.80
67870;DHT22;54673;52.262;6.830;2023-09-19T13:05:56;20.60;69.40
67870;DHT22;54673;52.262;6.830;2023-09-19T13:08:31;20.60;69.40
67870;DHT22;54673;52.262;6.830;2023-09-19T13:11:14;20.60;68.80
67870;DHT22;54673;52.262;6.830;2023-09-19T13:13:47;20.60;69.00
67870;DHT22;54673;52.262;6.830;2023-09-19T13:16:19;20.70;69.20
67870;DHT22;54673;52.262;6.830;2023-09-19T13:18:50;20.70;69.10
67870;DHT22;54673;52.262;6.830;2023-09-19T13:21:17;20.70;68.90
67870;DHT22;54673;52.262;6.830;2023-09-19T13:23:54;20.80;69.00
67870;DHT22;54673;52.262;6.830;2023-09-19T13:26:25;20.80;68.80
67870;DHT22;54673;52.262;6.830;2023-09-19T13:28:50;20.80;68.70
67870;DHT22;54673;52.262;6.830;2023-09-19T13:31:16;20.80;68.10
67870;DHT22;54673;52.262;6.830;2023-09-19T13:33:47;20.80;68.40
67870;DHT22;54673;52.262;6.830;2023-09-19T13:36:13;20.80;68.50
67870;DHT22;54673;52.262;6.830;2023-09-19T13:38:42;20.80;68.50
67870;DHT22;54673;52.262;6.830;2023-09-19T13:41:09;20.80;68.00
67870;DHT22;54673;52.262;6.830;2023-09-19T13:43:36;20.80;68.20
67870;DHT22;54673;52.262;6.830;2023-09-19T13:46:02;20.80;67.80
67870;DHT22;54673;52.262;6.830;2023-09-19T13:48:28;20.80;67.70
67870;DHT22;54673;52.262;6.830;2023-09-19T13:50:55;20.80;67.80
67870;DHT22;54673;52.262;6.830;2023-09-19T13:53:21;20.80;68.50
67870;DHT22;54673;52.262;6.830;2023-09-19T13:55:46;20.80;68.10
67870;DHT22;54673;52.262;6.830;2023-09-19T13:58:14;20.80;68.40
67870;DHT22;54673;52.262;6.830;2023-09-19T14:00:39;20.80;67.70
67870;DHT22;54673;52.262;6.830;2023-09-19T14:03:05;20.80;68.10
67870;DHT22;54673;52.262;6.830;2023-09-19T14:05:31;20.70;68.20
67870;DHT22;54673;52.262;6.830;2023-09-19T14:07:57;20.70;68.50
67870;DHT22;54673;52.262;6.830;2023-09-19T14:10:25;20.90;68.40
67870;DHT22;54673;52.262;6.830;2023-09-19T14:12:51;20.70;67.90
67870;DHT22;54673;52.262;6.830;2023-09-19T14:15:17;20.60;68.00
67870;DHT22;54673;52.262;6.830;2023-09-19T14:17:42;20.70;68.10
67870;DHT22;54673;52.262;6.830;2023-09-19T14:20:10;20.60;67.40
67870;DHT22;54673;52.262;6.830;2023-09-19T14:22:36;20.60;68.60
67870;DHT22;54673;52.262;6.830;2023-09-19T14:25:05;20.60;69.40
67870;DHT22;54673;52.262;6.830;2023-09-19T14:27:31;20.60;68.70
67870;DHT22;54673;52.262;6.830;2023-09-19T14:29:56;20.50;68.80
67870;DHT22;54673;52.262;6.830;2023-09-19T14:32:23;21.10;69.00
67870;DHT22;54673;52.262;6.830;2023-09-19T14:34:48;20.50;68.90
67870;DHT22;54673;52.262;6.830;2023-09-19T14:37:15;20.50;69.10
67870;DHT22;54673;52.262;6.830;2023-09-19T14:39:42;20.50;67.90
67870;DHT22;54673;52.262;6.830;2023-09-19T14:42:10;20.40;69.20
67870;DHT22;54673;52.262;6.830;2023-09-19T14:44:36;20.40;69.40
67870;DHT22;54673;52.262;6.830;2023-09-19T14:47:03;20.30;69.10
67870;DHT22;54673;52.262;6.830;2023-09-19T14:49:33;20.30;69.10
67870;DHT22;54673;52.262;6.830;2023-09-19T14:51:59;20.30;69.10
67870;DHT22;54673;52.262;6.830;2023-09-19T14:54:24;20.30;69.30
67870;DHT22;54673;52.262;6.830;2023-09-19T14:56:50;20.30;69.70
67870;DHT22;54673;52.262;6.830;2023-09-19T14:59:21;20.30;69.40
67870;DHT22;54673;52.262;6.830;2023-09-19T15:01:47;20.30;69.90
67870;DHT22;54673;52.262;6.830;2023-09-19T15:04:15;20.20;69.90
67870;DHT22;54673;52.262;6.830;2023-09-19T15:06:41;20.20;70.00
67870;DHT22;54673;52.262;6.830;2023-09-19T15:09:06;20.30;70.10
67870;DHT22;54673;52.262;6.830;2023-09-19T15:11:34;20.20;70.00
67870;DHT22;54673;52.262;6.830;2023-09-19T15:13:59;20.20;70.60
67870;DHT22;54673;52.262;6.830;2023-09-19T15:16:25;20.20;70.30
67870;DHT22;54673;52.262;6.830;2023-09-19T15:18:50;20.10;70.30
67870;DHT22;54673;52.262;6.830;2023-09-19T15:21:17;20.10;70.20
67870;DHT22;54673;52.262;6.830;2023-09-19T15:23:43;20.10;70.30
67870;DHT22;54673;52.262;6.830;2023-09-19T15:26:11;20.10;70.60
67870;DHT22;54673;52.262;6.830;2023-09-19T15:28:38;20.10;70.30
67870;DHT22;54673;52.262;6.830;2023-09-19T15:31:09;20.10;70.50
67870;DHT22;54673;52.262;6.830;2023-09-19T15:33:35;20.10;70.50
67870;DHT22;54673;52.262;6.830;2023-09-19T15:36:11;20.10;70.70
67870;DHT22;54673;52.262;6.830;2023-09-19T15:39:08;20.10;70.20
67870;DHT22;54673;52.262;6.830;2023-09-19T15:41:37;20.10;70.60
67870;DHT22;54673;52.262;6.830;2023-09-19T15:44:04;20.10;70.50
67870;DHT22;54673;52.262;6.830;2023-09-19T15:46:31;20.00;70.60
67870;DHT22;54673;52.262;6.830;2023-09-19T15:49:00;20.00;70.50
67870;DHT22;54673;52.262;6.830;2023-09-19T15:51:26;20.00;70.20
67870;DHT22;54673;52.262;6.830;2023-09-19T15:53:53;20.00;70.00
67870;DHT22;54673;52.262;6.830;2023-09-19T15:56:20;20.00;70.70
67870;DHT22;54673;52.262;6.830;2023-09-19T15:58:51;20.00;69.80
67870;DHT22;54673;52.262;6.830;2023-09-19T16:01:17;20.00;70.30
67870;DHT22;54673;52.262;6.830;2023-09-19T16:03:50;19.90;70.20
67870;DHT22;54673;52.262;6.830;2023-09-19T16:06:22;19.90;69.20
67870;DHT22;54673;52.262;6.830;2023-09-19T16:08:53;19.80;68.50
67870;DHT22;54673;52.262;6.830;2023-09-19T16:11:19;19.80;68.80
67870;DHT22;54673;52.262;6.830;2023-09-19T16:13:49;19.80;69.00
67870;DHT22;54673;52.262;6.830;2023-09-19T16:16:17;19.80;68.80
67870;DHT22;54673;52.262;6.830;2023-09-19T16:18:46;19.80;69.20
67870;DHT22;54673;52.262;6.830;2023-09-19T16:21:13;19.90;69.90